createdAt,value
2023-06-04T00:01:17.105Z,100971.19
2023-06-04T00:03:45.622Z,100964.19
2023-06-04T00:06:13.954Z,100963.06
2023-06-04T00:08:41.958Z,100963.34
2023-06-04T00:11:10.200Z,100972.50
2023-06-04T00:13:39.710Z,100969.41
2023-06-04T00:16:07.913Z,100968.34
2023-06-04T00:18:35.915Z,100966.69
2023-06-04T00:21:04.008Z,100958.94
2023-06-04T00:23:32.229Z,100959.75
2023-06-04T00:26:00.249Z,100960.00
2023-06-04T00:28:28.199Z,100970.06
2023-06-04T00:30:57.643Z,100976.94
2023-06-04T00:33:25.648Z,100964.53
2023-06-04T00:35:53.620Z,100958.09
2023-06-04T00:38:21.632Z,100964.50
2023-06-04T00:40:49.634Z,100956.94
2023-06-04T00:43:17.653Z,100969.19
2023-06-04T00:45:45.663Z,100969.31
2023-06-04T00:48:15.062Z,100961.78
2023-06-04T00:50:43.535Z,100972.69
2023-06-04T00:53:12.162Z,100971.25
2023-06-04T00:55:40.136Z,100968.13
2023-06-04T00:58:08.106Z,100969.38
2023-06-04T01:00:36.086Z,100975.75
2023-06-04T01:03:09.566Z,100960.41
2023-06-04T01:05:43.486Z,100974.06
2023-06-04T01:08:11.279Z,100977.28
2023-06-04T01:10:39.240Z,100979.47
2023-06-04T01:13:07.431Z,100975.31
2023-06-04T01:15:35.612Z,100973.38
2023-06-04T01:18:07.148Z,100986.00
2023-06-04T01:20:40.351Z,100981.50
2023-06-04T01:23:21.921Z,100975.41
2023-06-04T01:25:51.714Z,100975.78
2023-06-04T01:28:21.918Z,100967.78
2023-06-04T01:30:52.051Z,100977.19
2023-06-04T01:33:21.522Z,100974.81
2023-06-04T01:35:51.589Z,100974.38
2023-06-04T01:38:20.232Z,100972.94
2023-06-04T01:40:48.263Z,100973.66
2023-06-04T01:43:16.213Z,100975.13
2023-06-04T01:45:44.199Z,100975.44
2023-06-04T01:48:12.315Z,100982.13
2023-06-04T01:50:40.274Z,100992.97
2023-06-04T01:53:09.603Z,100992.13
2023-06-04T01:55:38.734Z,100996.09
2023-06-04T01:58:08.618Z,100996.44
2023-06-04T02:00:36.587Z,101004.19
2023-06-04T02:03:04.728Z,100986.66
2023-06-04T02:05:32.957Z,100992.25
2023-06-04T02:08:03.082Z,101001.44
2023-06-04T02:10:32.998Z,101007.97
2023-06-04T02:13:03.556Z,101009.03
2023-06-04T02:15:33.406Z,101007.75
2023-06-04T02:18:17.544Z,101007.97
2023-06-04T02:20:46.881Z,101013.94
2023-06-04T02:23:16.075Z,101016.44
2023-06-04T02:25:46.745Z,101018.00
2023-06-04T02:28:14.864Z,101019.66
2023-06-04T02:30:43.086Z,101018.34
2023-06-04T02:33:11.440Z,101014.66
2023-06-04T02:35:39.967Z,101027.19
2023-06-04T02:38:08.191Z,101033.25
2023-06-04T02:40:36.184Z,101040.16
2023-06-04T02:43:05.531Z,101037.56
2023-06-04T02:45:33.499Z,101040.78
2023-06-04T02:48:01.500Z,101046.47
2023-06-04T02:50:29.586Z,101043.44
2023-06-04T02:52:57.533Z,101045.81
2023-06-04T02:55:26.266Z,101027.78
2023-06-04T02:57:54.225Z,101041.06
2023-06-04T03:00:23.676Z,101034.00
2023-06-04T03:02:51.702Z,101041.16
2023-06-04T03:05:20.022Z,101041.25
2023-06-04T03:07:48.932Z,101044.75
2023-06-04T03:10:18.120Z,101055.44
2023-06-04T03:12:46.122Z,101050.06
2023-06-04T03:15:14.192Z,101057.84
2023-06-04T03:17:45.496Z,101057.34
2023-06-04T03:20:13.521Z,101061.78
2023-06-04T03:22:41.619Z,101067.50
2023-06-04T03:25:10.625Z,101072.28
2023-06-04T03:27:38.684Z,101074.84
2023-06-04T03:30:08.169Z,101078.28
2023-06-04T03:32:36.204Z,101076.88
2023-06-04T03:35:06.310Z,101081.19
2023-06-04T03:37:34.731Z,101073.19
2023-06-04T03:40:07.293Z,101071.63
2023-06-04T03:42:35.361Z,101072.25
2023-06-04T03:45:03.377Z,101072.38
2023-06-04T03:47:31.470Z,101078.09
2023-06-04T03:49:59.447Z,101081.81
2023-06-04T03:52:29.074Z,101075.97
2023-06-04T03:54:57.338Z,101082.75
2023-06-04T03:57:25.452Z,101082.88
2023-06-04T03:59:54.676Z,101075.47
2023-06-04T04:02:22.732Z,101088.34
2023-06-04T04:04:51.060Z,101092.28
2023-06-04T04:07:19.029Z,101085.25
2023-06-04T04:09:48.352Z,101089.06
2023-06-04T04:12:16.357Z,101090.16
2023-06-04T04:14:44.297Z,101094.47
2023-06-04T04:17:12.298Z,101102.69
2023-06-04T04:19:40.366Z,101106.97
2023-06-04T04:22:10.100Z,101115.94
2023-06-04T04:24:38.835Z,101103.75
2023-06-04T04:27:12.315Z,101108.16
2023-06-04T04:29:43.673Z,101100.63
2023-06-04T04:32:12.813Z,101109.34
2023-06-04T04:34:52.596Z,101115.41
2023-06-04T04:37:23.126Z,101116.81
2023-06-04T04:39:53.200Z,101106.88
2023-06-04T04:42:22.681Z,101114.28
2023-06-04T04:44:51.735Z,101125.63
2023-06-04T04:47:19.754Z,101110.50
2023-06-04T04:49:50.438Z,101118.63
2023-06-04T04:52:18.997Z,101114.50
2023-06-04T04:54:46.955Z,101118.81
2023-06-04T04:57:14.937Z,101121.66
2023-06-04T04:59:44.274Z,101121.22
2023-06-04T05:02:12.307Z,101121.47
2023-06-04T05:04:40.322Z,101124.69
2023-06-04T05:07:08.410Z,101125.25
2023-06-04T05:09:36.759Z,101130.75
2023-06-04T05:12:05.051Z,101126.69
2023-06-04T05:14:33.023Z,101133.50
2023-06-04T05:17:02.387Z,101122.41
2023-06-04T05:19:33.764Z,101131.97
2023-06-04T05:22:02.127Z,101130.78
2023-06-04T05:24:30.333Z,101130.19
2023-06-04T05:26:58.438Z,101131.66
2023-06-04T05:29:26.690Z,101136.00
2023-06-04T05:31:54.731Z,101137.09
2023-06-04T05:34:24.128Z,101145.34
2023-06-04T05:36:53.761Z,101146.88
2023-06-04T05:39:25.089Z,101148.34
2023-06-04T05:41:53.075Z,101143.94
2023-06-04T05:44:22.187Z,101149.56
2023-06-04T05:46:50.198Z,101149.25
2023-06-04T05:49:18.214Z,101145.50
2023-06-04T05:51:47.551Z,101149.63
2023-06-04T05:54:15.475Z,101143.97
2023-06-04T05:56:43.528Z,101149.56
2023-06-04T05:59:11.518Z,101148.09
2023-06-04T06:01:39.475Z,101151.22
2023-06-04T06:04:07.621Z,101165.78
2023-06-04T06:06:35.779Z,101161.69
2023-06-04T06:09:06.016Z,101169.81
2023-06-04T06:11:34.018Z,101167.66
2023-06-04T06:14:02.507Z,101169.63
2023-06-04T06:16:31.148Z,101163.28
2023-06-04T06:18:59.105Z,101171.25
2023-06-04T06:21:27.240Z,101175.47
2023-06-04T06:23:56.314Z,101174.00
2023-06-04T06:26:26.462Z,101175.59
2023-06-04T06:28:54.612Z,101177.25
2023-06-04T06:31:22.758Z,101175.91
2023-06-04T06:33:50.785Z,101169.81
2023-06-04T06:36:19.857Z,101171.75
2023-06-04T06:38:48.288Z,101182.00
2023-06-04T06:41:16.494Z,101165.31
2023-06-04T06:43:45.975Z,101177.03
2023-06-04T06:46:15.710Z,101179.72
2023-06-04T06:48:46.413Z,101185.41
2023-06-04T06:51:14.709Z,101193.81
2023-06-04T06:53:42.804Z,101186.53
2023-06-04T06:56:10.875Z,101192.78
2023-06-04T06:58:38.819Z,101185.94
2023-06-04T07:01:08.436Z,101188.16
2023-06-04T07:03:36.673Z,101190.66
2023-06-04T07:06:05.033Z,101190.53
2023-06-04T07:08:32.953Z,101191.50
2023-06-04T07:11:01.122Z,101190.16
2023-06-04T07:13:29.082Z,101183.09
2023-06-04T07:15:57.049Z,101189.34
2023-06-04T07:18:26.402Z,101188.63
2023-06-04T07:20:56.910Z,101189.63
2023-06-04T07:23:25.973Z,101195.16
2023-06-04T07:25:54.072Z,101194.34
2023-06-04T07:28:22.070Z,101203.38
2023-06-04T07:30:50.271Z,101203.78
2023-06-04T07:33:18.382Z,101196.94
2023-06-04T07:35:47.709Z,101196.22
2023-06-04T07:38:16.028Z,101204.69
2023-06-04T07:40:44.018Z,101195.28
2023-06-04T07:43:12.014Z,101200.59
2023-06-04T07:45:39.952Z,101197.72
2023-06-04T07:48:08.071Z,101194.56
2023-06-04T07:50:37.582Z,101201.44
2023-06-04T07:53:08.671Z,101198.88
2023-06-04T07:55:36.589Z,101190.69
2023-06-04T07:58:06.344Z,101193.94
2023-06-04T08:00:34.927Z,101198.69
2023-06-04T08:03:03.074Z,101184.03
2023-06-04T08:05:31.530Z,101199.38
2023-06-04T08:07:59.514Z,101187.09
2023-06-04T08:10:28.873Z,101190.69
2023-06-04T08:12:56.941Z,101183.81
2023-06-04T08:15:24.948Z,101196.06
2023-06-04T08:17:53.288Z,101198.31
2023-06-04T08:20:21.347Z,101186.41
2023-06-04T08:22:49.338Z,101192.97
2023-06-04T08:25:17.550Z,101192.66
2023-06-04T08:27:47.052Z,101191.44
2023-06-04T08:30:15.208Z,101196.34
2023-06-04T08:32:43.190Z,101199.31
2023-06-04T08:35:11.919Z,101198.41
2023-06-04T08:37:40.062Z,101196.19
2023-06-04T08:40:10.228Z,101198.03
2023-06-04T08:42:43.000Z,101198.56
2023-06-04T08:45:16.451Z,101206.34
2023-06-04T08:47:45.787Z,101204.00
2023-06-04T08:50:17.074Z,101206.13
2023-06-04T08:52:45.387Z,101203.25
2023-06-04T08:55:14.983Z,101182.94
2023-06-04T08:57:43.036Z,101188.91
2023-06-04T09:00:14.497Z,101194.22
2023-06-04T09:02:42.753Z,101200.22
2023-06-04T09:05:11.707Z,101198.88
2023-06-04T09:07:42.107Z,101195.56
2023-06-04T09:10:14.255Z,101206.53
2023-06-04T09:12:45.361Z,101213.00
2023-06-04T09:15:14.951Z,101201.53
2023-06-04T09:17:42.987Z,101206.75
2023-06-04T09:20:20.852Z,101212.53
2023-06-04T09:22:49.008Z,101211.00
2023-06-04T09:25:26.597Z,101205.66
2023-06-04T09:27:56.569Z,101216.63
2023-06-04T09:30:26.568Z,101212.66
2023-06-04T09:32:55.818Z,101207.81
2023-06-04T09:35:24.144Z,101204.84
2023-06-04T09:37:56.914Z,101219.66
2023-06-04T09:40:25.803Z,101216.81
2023-06-04T09:42:56.740Z,101208.16
2023-06-04T09:45:33.526Z,101201.53
2023-06-04T09:48:09.070Z,101211.50
2023-06-04T09:50:40.233Z,101214.34
2023-06-04T09:53:16.723Z,101212.16
2023-06-04T09:55:45.015Z,101214.81
2023-06-04T09:58:13.892Z,101213.94
2023-06-04T10:00:43.903Z,101219.97
2023-06-04T10:03:17.288Z,101215.81
2023-06-04T10:05:45.607Z,101205.84
2023-06-04T10:08:17.959Z,101216.16
2023-06-04T10:10:47.646Z,101206.94
2023-06-04T10:13:20.274Z,101201.38
2023-06-04T10:15:51.016Z,101207.56
2023-06-04T10:18:20.053Z,101204.56
2023-06-04T10:20:48.405Z,101197.41
2023-06-04T10:23:18.919Z,101209.75
2023-06-04T10:25:48.694Z,101195.91
2023-06-04T10:28:17.820Z,101197.91
2023-06-04T10:30:45.828Z,101198.78
2023-06-04T10:33:18.391Z,101206.66
2023-06-04T10:35:47.038Z,101204.84
2023-06-04T10:38:17.745Z,101201.28
2023-06-04T10:40:46.007Z,101197.19
2023-06-04T10:43:15.348Z,101206.16
2023-06-04T10:45:43.352Z,101203.44
2023-06-04T10:48:13.099Z,101197.84
2023-06-04T10:50:52.325Z,101198.59
2023-06-04T10:53:21.225Z,101184.72
2023-06-04T10:55:50.606Z,101178.81
2023-06-04T10:58:19.253Z,101174.97
2023-06-04T11:00:50.662Z,101170.25
2023-06-04T11:03:19.401Z,101180.28
2023-06-04T11:05:49.030Z,101172.97
2023-06-04T11:08:29.547Z,101171.59
2023-06-04T11:10:57.902Z,101177.03
2023-06-04T11:13:26.993Z,101173.38
2023-06-04T11:15:55.166Z,101171.25
2023-06-04T11:18:25.109Z,101181.47
2023-06-04T11:21:02.200Z,101174.03
2023-06-04T11:23:31.827Z,101177.53
2023-06-04T11:26:00.533Z,101174.16
2023-06-04T11:28:29.199Z,101166.16
2023-06-04T11:31:00.571Z,101172.34
2023-06-04T11:33:28.646Z,101169.81
2023-06-04T11:35:56.636Z,101164.59
2023-06-04T11:38:24.721Z,101164.31
2023-06-04T11:41:02.038Z,101160.13
2023-06-04T11:43:30.577Z,101169.94
2023-06-04T11:45:59.132Z,101166.78
2023-06-04T11:48:27.309Z,101159.78
2023-06-04T11:50:56.308Z,101169.41
2023-06-04T11:53:24.419Z,101161.34
2023-06-04T11:55:52.549Z,101156.00
2023-06-04T11:58:22.362Z,101144.69
2023-06-04T12:00:50.740Z,101164.19
2023-06-04T12:03:19.114Z,101152.53
2023-06-04T12:05:47.137Z,101162.81
2023-06-04T12:08:15.184Z,101149.31
2023-06-04T12:10:44.405Z,101146.59
2023-06-04T12:13:13.088Z,101147.59
2023-06-04T12:15:42.979Z,101161.72
2023-06-04T12:18:11.620Z,101158.84
2023-06-04T12:20:41.213Z,101152.41
2023-06-04T12:23:09.757Z,101139.38
2023-06-04T12:25:40.192Z,101151.34
2023-06-04T12:28:08.336Z,101163.22
2023-06-04T12:30:40.238Z,101153.25
2023-06-04T12:33:09.857Z,101146.94
2023-06-04T12:35:37.876Z,101157.22
2023-06-04T12:38:06.812Z,101154.25
2023-06-04T12:40:34.911Z,101156.91
2023-06-04T12:43:03.189Z,101153.47
2023-06-04T12:45:31.223Z,101151.63
2023-06-04T12:47:59.248Z,101168.53
2023-06-04T12:50:28.785Z,101159.50
2023-06-04T12:52:56.745Z,101161.22
2023-06-04T12:55:27.272Z,101152.53
2023-06-04T12:57:56.275Z,101166.38
2023-06-04T13:00:24.427Z,101149.00
2023-06-04T13:02:52.751Z,101145.44
2023-06-04T13:05:20.834Z,101152.25
2023-06-04T13:07:50.150Z,101154.00
2023-06-04T13:10:18.136Z,101153.00
2023-06-04T13:12:46.482Z,101153.34
2023-06-04T13:15:14.469Z,101157.03
2023-06-04T13:17:42.498Z,101154.00
2023-06-04T13:20:12.489Z,101143.56
2023-06-04T13:22:41.532Z,101146.28
2023-06-04T13:25:11.503Z,101151.47
2023-06-04T13:27:39.460Z,101150.09
2023-06-04T13:30:08.560Z,101151.38
2023-06-04T13:32:36.597Z,101154.69
2023-06-04T13:35:04.911Z,101151.34
2023-06-04T13:37:32.895Z,101141.72
2023-06-04T13:40:01.048Z,101140.09
2023-06-04T13:42:30.476Z,101149.72
2023-06-04T13:44:58.587Z,101145.22
2023-06-04T13:47:26.686Z,101147.31
2023-06-04T13:49:54.681Z,101137.34
2023-06-04T13:52:22.654Z,101143.47
2023-06-04T13:54:50.727Z,101138.13
2023-06-04T13:57:18.901Z,101139.09
2023-06-04T13:59:48.343Z,101133.81
2023-06-04T14:02:16.769Z,101129.63
2023-06-04T14:04:44.877Z,101132.06
2023-06-04T14:07:12.928Z,101128.88
2023-06-04T14:09:41.137Z,101139.09
2023-06-04T14:12:09.988Z,101132.00
2023-06-04T14:14:38.375Z,101126.69
2023-06-04T14:17:08.571Z,101122.84
2023-06-04T14:19:36.595Z,101129.03
2023-06-04T14:22:04.936Z,101119.75
2023-06-04T14:24:33.057Z,101128.34
2023-06-04T14:27:01.255Z,101124.16
2023-06-04T14:29:29.304Z,101115.97
2023-06-04T14:31:57.468Z,101120.03
2023-06-04T14:34:26.951Z,101120.91
2023-06-04T14:36:55.483Z,101113.09
2023-06-04T14:39:23.563Z,101114.53
2023-06-04T14:41:51.911Z,101118.56
2023-06-04T14:44:20.034Z,101115.84
2023-06-04T14:46:48.454Z,101116.38
2023-06-04T14:49:16.597Z,101109.94
2023-06-04T14:51:46.000Z,101103.44
2023-06-04T14:54:14.035Z,101107.63
2023-06-04T14:56:42.092Z,101100.78
2023-06-04T14:59:12.493Z,101104.59
2023-06-04T15:01:41.854Z,101101.63
2023-06-04T15:04:10.773Z,101092.84
2023-06-04T15:06:38.898Z,101093.31
2023-06-04T15:09:08.230Z,101086.72
2023-06-04T15:11:36.286Z,101089.03
2023-06-04T15:14:04.639Z,101082.38
2023-06-04T15:16:32.638Z,101090.03
2023-06-04T15:19:00.740Z,101080.38
2023-06-04T15:21:28.766Z,101092.84
2023-06-04T15:23:56.827Z,101093.34
2023-06-04T15:26:28.319Z,101088.88
2023-06-04T15:28:57.580Z,101089.72
2023-06-04T15:31:25.865Z,101088.19
2023-06-04T15:33:53.981Z,101088.56
2023-06-04T15:36:21.943Z,101085.69
2023-06-04T15:38:51.349Z,101088.41
2023-06-04T15:41:22.473Z,101091.88
2023-06-04T15:43:54.103Z,101088.09
2023-06-04T15:46:25.469Z,101087.91
2023-06-04T15:48:53.608Z,101095.53
2023-06-04T15:51:21.607Z,101091.72
2023-06-04T15:53:49.642Z,101091.72
2023-06-04T15:56:19.359Z,101081.25
2023-06-04T15:58:47.325Z,101085.25
2023-06-04T16:01:16.681Z,101076.97
2023-06-04T16:03:44.760Z,101085.09
2023-06-04T16:06:12.934Z,101086.75
2023-06-04T16:08:42.330Z,101057.38
2023-06-04T16:11:10.671Z,101082.25
2023-06-04T16:13:38.763Z,101079.44
2023-06-04T16:16:07.426Z,101077.78
2023-06-04T16:18:37.035Z,101081.44
2023-06-04T16:21:05.127Z,101086.41
2023-06-04T16:23:33.395Z,101083.78
2023-06-04T16:26:01.444Z,101084.59
2023-06-04T16:28:30.259Z,101082.03
2023-06-04T16:30:58.566Z,101081.72
2023-06-04T16:33:26.579Z,101083.78
2023-06-04T16:35:55.934Z,101086.91
2023-06-04T16:38:24.718Z,101093.03
2023-06-04T16:40:54.181Z,101090.34
2023-06-04T16:43:22.129Z,101102.00
2023-06-04T16:45:50.174Z,101091.66
2023-06-04T16:48:18.181Z,101091.81
2023-06-04T16:50:46.163Z,101083.19
2023-06-04T16:53:15.536Z,101086.31
2023-06-04T16:55:43.500Z,101095.28
2023-06-04T16:58:11.476Z,101091.31
2023-06-04T17:00:39.536Z,101084.63
2023-06-04T17:03:07.577Z,101093.84
2023-06-04T17:05:35.626Z,101091.28
2023-06-04T17:08:03.573Z,101093.94
2023-06-04T17:10:33.541Z,101087.97
2023-06-04T17:13:02.251Z,101094.59
2023-06-04T17:15:30.487Z,101096.28
2023-06-04T17:18:01.567Z,101095.91
2023-06-04T17:20:30.234Z,101092.75
2023-06-04T17:23:00.170Z,101092.94
2023-06-04T17:25:28.400Z,101104.84
2023-06-04T17:27:57.963Z,101098.88
2023-06-04T17:30:26.033Z,101103.00
2023-06-04T17:32:54.115Z,101103.00
2023-06-04T17:35:22.172Z,101108.19
2023-06-04T17:37:51.123Z,101107.69
2023-06-04T17:40:19.101Z,101112.78
2023-06-04T17:42:47.804Z,101110.09
2023-06-04T17:45:17.420Z,101108.56
2023-06-04T17:47:46.214Z,101114.78
2023-06-04T17:50:14.294Z,101108.78
2023-06-04T17:52:42.269Z,101108.06
2023-06-04T17:55:10.801Z,101113.75
2023-06-04T17:57:38.768Z,101119.09
2023-06-04T18:00:08.311Z,101099.53
2023-06-04T18:02:37.740Z,101118.06
2023-06-04T18:05:06.231Z,101118.28
2023-06-04T18:07:34.234Z,101128.78
2023-06-04T18:10:02.410Z,101121.22
2023-06-04T18:12:31.531Z,101117.72
2023-06-04T18:15:00.676Z,101122.78
2023-06-04T18:17:28.685Z,101127.41
2023-06-04T18:19:58.115Z,101127.31
2023-06-04T18:22:26.122Z,101124.72
2023-06-04T18:24:54.544Z,101126.28
2023-06-04T18:27:23.235Z,101127.56
2023-06-04T18:29:51.439Z,101134.28
2023-06-04T18:32:19.756Z,101138.63
2023-06-04T18:34:47.872Z,101134.88
2023-06-04T18:37:17.233Z,101149.59
2023-06-04T18:39:45.823Z,101155.34
2023-06-04T18:42:25.772Z,101161.44
2023-06-04T18:44:58.842Z,101153.81
2023-06-04T18:47:27.165Z,101160.50
2023-06-04T18:49:56.849Z,101161.03
2023-06-04T18:52:26.497Z,101161.31
2023-06-04T18:54:54.637Z,101167.22
2023-06-04T18:57:22.943Z,101169.69
2023-06-04T18:59:51.444Z,101173.72
2023-06-04T19:02:19.431Z,101167.44
2023-06-04T19:04:47.579Z,101163.94
2023-06-04T19:07:15.601Z,101165.31
2023-06-04T19:09:45.078Z,101161.41
2023-06-04T19:12:13.095Z,101162.34
2023-06-04T19:14:41.120Z,101165.91
2023-06-04T19:17:09.408Z,101173.25
2023-06-04T19:19:37.392Z,101179.56
2023-06-04T19:22:05.684Z,101173.41
2023-06-04T19:24:33.725Z,101173.78
2023-06-04T19:27:03.130Z,101176.09
2023-06-04T19:29:31.240Z,101174.09
2023-06-04T19:31:59.348Z,101180.31
2023-06-04T19:34:27.437Z,101174.22
2023-06-04T19:36:55.586Z,101177.81
2023-06-04T19:39:23.565Z,101172.94
2023-06-04T19:41:51.630Z,101170.94
2023-06-04T19:44:20.974Z,101177.69
2023-06-04T19:46:49.642Z,101177.19
2023-06-04T19:49:17.727Z,101171.75
2023-06-04T19:51:45.706Z,101176.53
2023-06-04T19:54:13.691Z,101173.06
2023-06-04T19:56:41.784Z,101174.78
2023-06-04T19:59:09.839Z,101175.16
2023-06-04T20:01:39.287Z,101166.47
2023-06-04T20:04:07.569Z,101167.78
2023-06-04T20:06:36.066Z,101165.53
2023-06-04T20:09:04.938Z,101159.09
2023-06-04T20:11:33.779Z,101163.16
2023-06-04T20:14:02.064Z,101159.47
2023-06-04T20:16:30.916Z,101163.66
2023-06-04T20:19:00.531Z,101166.16
2023-06-04T20:21:33.703Z,101163.53
2023-06-04T20:24:04.180Z,101163.06
2023-06-04T20:26:34.030Z,101169.63
2023-06-04T20:29:02.224Z,101163.75
2023-06-04T20:31:30.366Z,101142.13
2023-06-04T20:33:58.473Z,101165.94
2023-06-04T20:36:28.812Z,101160.41
2023-06-04T20:38:57.381Z,101164.72
2023-06-04T20:41:25.504Z,101162.81
2023-06-04T20:43:54.525Z,101165.31
2023-06-04T20:46:23.599Z,101172.66
2023-06-04T20:48:52.379Z,101171.94
2023-06-04T20:51:20.735Z,101179.03
2023-06-04T20:53:50.497Z,101175.69
2023-06-04T20:56:18.682Z,101188.66
2023-06-04T20:58:46.670Z,101186.09
2023-06-04T21:01:15.010Z,101178.94
2023-06-04T21:03:43.106Z,101173.19
2023-06-04T21:06:11.241Z,101176.22
2023-06-04T21:08:39.916Z,101175.59
2023-06-04T21:11:09.544Z,101180.63
2023-06-04T21:13:37.726Z,101179.50
2023-06-04T21:16:05.853Z,101180.34
2023-06-04T21:18:33.949Z,101176.03
2023-06-04T21:21:01.883Z,101181.00
2023-06-04T21:23:29.919Z,101171.72
2023-06-04T21:25:57.928Z,101183.13
2023-06-04T21:28:27.280Z,101183.13
2023-06-04T21:30:55.259Z,101190.91
2023-06-04T21:33:23.253Z,101184.00
2023-06-04T21:35:51.180Z,101184.03
2023-06-04T21:38:19.127Z,101186.97
2023-06-04T21:40:47.192Z,101182.38
2023-06-04T21:43:15.204Z,101183.31
2023-06-04T21:45:44.957Z,101179.97
2023-06-04T21:48:13.010Z,101182.00
2023-06-04T21:50:41.049Z,101171.00
2023-06-04T21:53:08.996Z,101177.28
2023-06-04T21:55:37.293Z,101177.41
2023-06-04T21:58:05.226Z,101171.66
2023-06-04T22:00:33.289Z,101167.59
2023-06-04T22:03:02.859Z,101167.94
2023-06-04T22:05:31.077Z,101165.50
2023-06-04T22:08:02.097Z,101165.00
2023-06-04T22:10:30.330Z,101169.72
2023-06-04T22:12:58.259Z,101162.19
2023-06-04T22:15:26.242Z,101168.25
2023-06-04T22:17:54.281Z,101161.59
2023-06-04T22:20:23.628Z,101160.59
2023-06-04T22:22:51.575Z,101158.16
2023-06-04T22:25:19.537Z,101157.69
2023-06-04T22:27:47.572Z,101156.22
2023-06-04T22:30:15.683Z,101155.38
2023-06-04T22:32:43.802Z,101159.78
2023-06-04T22:35:11.877Z,101158.00
2023-06-04T22:37:41.240Z,101156.94
2023-06-04T22:40:09.999Z,101167.53
2023-06-04T22:42:37.963Z,101164.47
2023-06-04T22:45:06.624Z,101167.72
2023-06-04T22:47:34.674Z,101164.16
2023-06-04T22:50:03.046Z,101168.78
2023-06-04T22:52:31.739Z,101162.41
2023-06-04T22:55:02.192Z,101157.09
2023-06-04T22:57:31.378Z,101161.59
2023-06-04T22:59:59.319Z,101160.97
2023-06-04T23:02:27.501Z,101152.50
2023-06-04T23:04:55.616Z,101145.78
2023-06-04T23:07:23.547Z,101143.41
2023-06-04T23:09:52.537Z,101143.22
2023-06-04T23:12:21.980Z,101155.75
2023-06-04T23:14:49.928Z,101149.97
2023-06-04T23:17:19.657Z,101144.97
2023-06-04T23:19:48.000Z,101151.03
2023-06-04T23:22:16.271Z,101141.09
2023-06-04T23:24:44.204Z,101148.22
2023-06-04T23:27:12.158Z,101137.75
2023-06-04T23:29:41.618Z,101143.22
2023-06-04T23:32:09.637Z,101137.44
2023-06-04T23:34:37.686Z,101137.53
2023-06-04T23:37:05.964Z,101143.84
2023-06-04T23:39:33.902Z,101138.06
2023-06-04T23:42:02.006Z,101150.38
2023-06-04T23:44:29.961Z,101148.16
2023-06-04T23:46:59.403Z,101152.72
2023-06-04T23:49:27.414Z,101156.06
2023-06-04T23:51:55.397Z,101158.50
2023-06-04T23:54:23.621Z,101159.78
2023-06-04T23:56:52.495Z,101163.97
2023-06-04T23:59:20.504Z,101157.50
